Time;durP1;ratioP1;P1;durP2;ratioP2;P2;SDS_P1;SDS_P2;PMS_P1;PMS_P2;Temp;Humidity;BMP_temperature;BMP_pressure;BME280_temperature;BME280_humidity;BME280_pressure;Samples;Min_cycle;Max_cycle;Signal;HPM_P1;HPM_P2
2023/01/10 00:00:33;;;;;;;3.40;0.95;;;6.80;99.90;;;;;;4841059;29;20475;-74
2023/01/10 00:03:04;;;;;;;3.55;1.10;;;6.80;99.90;;;;;;4856302;29;20411;-74
2023/01/10 00:05:30;;;;;;;4.82;1.40;;;6.70;99.90;;;;;;4857122;29;20061;-71
2023/01/10 00:07:57;;;;;;;6.20;1.52;;;6.80;99.90;;;;;;4839846;29;20094;-71
2023/01/10 00:10:24;;;;;;;5.95;1.50;;;6.70;99.90;;;;;;4825161;29;20054;-71
2023/01/10 00:15:34;;;;;;;3.95;1.20;;;6.60;99.90;;;;;;4855565;29;20053;-75
2023/01/10 00:18:00;;;;;;;3.58;1.10;;;6.60;99.90;;;;;;4840913;29;20054;-74
2023/01/10 00:20:26;;;;;;;2.83;1.10;;;6.60;99.90;;;;;;4857667;29;20369;-74
2023/01/10 00:22:52;;;;;;;7.63;1.35;;;6.60;99.90;;;;;;4859753;29;20053;-75
2023/01/10 00:25:19;;;;;;;4.03;1.30;;;6.60;99.90;;;;;;4859782;29;20105;-74
2023/01/10 00:27:55;;;;;;;10.23;2.30;;;6.60;99.90;;;;;;4859307;29;20049;-74
2023/01/10 00:30:22;;;;;;;6.95;2.03;;;6.70;99.90;;;;;;4843616;29;20050;-74
2023/01/10 00:32:50;;;;;;;7.20;1.80;;;6.70;99.90;;;;;;4859601;29;20037;-74
2023/01/10 00:35:16;;;;;;;6.88;1.50;;;6.80;99.90;;;;;;4835178;29;20037;-74
2023/01/10 00:37:42;;;;;;;4.18;1.05;;;6.90;99.90;;;;;;4844440;29;20136;-75
2023/01/10 00:40:09;;;;;;;5.53;1.70;;;6.90;99.90;;;;;;4860354;29;20144;-75
2023/01/10 00:45:21;;;;;;;6.70;1.52;;;7.00;99.90;;;;;;4858270;29;20054;-72
2023/01/10 00:47:47;;;;;;;8.27;2.00;;;7.10;99.90;;;;;;4858164;29;20087;-70
2023/01/10 00:50:16;;;;;;;6.15;1.58;;;7.00;99.90;;;;;;4826570;29;20559;-70
2023/01/10 00:52:42;;;;;;;3.50;1.30;;;7.00;99.90;;;;;;4855568;29;20044;-71
2023/01/10 00:55:08;;;;;;;5.15;1.40;;;7.00;99.90;;;;;;4840047;29;20053;-70
2023/01/10 00:57:34;;;;;;;5.82;1.48;;;7.10;99.90;;;;;;4851717;29;20409;-70
2023/01/10 00:59:59;;;;;;;9.15;2.30;;;7.20;99.90;;;;;;4858036;29;20148;-70
2023/01/10 01:02:25;;;;;;;8.27;2.00;;;7.30;99.90;;;;;;4858663;29;20117;-70
2023/01/10 01:04:51;;;;;;;7.05;1.70;;;7.50;99.90;;;;;;4841465;29;20109;-71
2023/01/10 01:07:17;;;;;;;13.00;2.40;;;7.50;99.90;;;;;;4835447;29;20046;-70
2023/01/10 01:12:27;;;;;;;9.07;1.90;;;7.60;99.90;;;;;;4841120;29;20504;-70
2023/01/10 01:14:52;;;;;;;12.77;2.20;;;7.70;99.90;;;;;;4842362;29;20152;-71
2023/01/10 01:17:21;;;;;;;10.27;2.25;;;7.80;99.90;;;;;;4858012;29;20046;-70
2023/01/10 01:19:46;;;;;;;9.70;2.10;;;7.80;99.90;;;;;;4826699;29;20053;-71
2023/01/10 01:22:12;;;;;;;11.35;1.90;;;7.80;99.90;;;;;;4857699;29;20053;-70
2023/01/10 01:24:38;;;;;;;7.88;2.05;;;7.80;99.90;;;;;;4857601;29;20064;-71
2023/01/10 01:27:04;;;;;;;5.75;1.60;;;7.80;99.90;;;;;;4857601;29;20094;-70
2023/01/10 01:29:29;;;;;;;8.98;2.20;;;7.80;99.90;;;;;;4840945;29;20208;-71
2023/01/10 01:31:56;;;;;;;8.17;1.97;;;7.70;99.90;;;;;;4842072;29;20085;-70
2023/01/10 01:34:21;;;;;;;8.88;1.90;;;7.70;99.90;;;;;;4857199;29;20374;-70
2023/01/10 01:36:47;;;;;;;10.35;2.08;;;7.60;99.90;;;;;;4857625;29;20430;-70
2023/01/10 01:39:13;;;;;;;7.47;1.80;;;7.60;99.90;;;;;;4857403;29;20366;-71
2023/01/10 01:41:57;;;;;;;6.35;1.70;;;7.60;99.90;;;;;;4857493;29;20045;-70
2023/01/10 01:44:28;;;;;;;8.63;1.77;;;7.60;99.90;;;;;;4856310;29;20074;-71
2023/01/10 01:47:14;;;;;;;9.25;1.98;;;7.60;99.90;;;;;;4857531;29;20072;-70
2023/01/10 01:49:44;;;;;;;7.25;1.70;;;7.60;99.90;;;;;;4847120;29;20054;-71
2023/01/10 01:52:26;;;;;;;9.05;1.70;;;7.60;99.90;;;;;;4857454;29;20133;-70
2023/01/10 01:54:55;;;;;;;7.07;1.80;;;7.50;99.90;;;;;;4856076;29;20053;-69
2023/01/10 01:57:25;;;;;;;8.93;2.15;;;7.50;99.90;;;;;;4857288;29;20037;-71
2023/01/10 01:59:53;;;;;;;9.70;1.85;;;7.40;99.90;;;;;;4855554;29;20116;-71
2023/01/10 02:02:25;;;;;;;8.35;1.90;;;7.50;99.90;;;;;;4839997;29;20045;-71
2023/01/10 02:05:02;;;;;;;7.68;1.70;;;7.50;99.90;;;;;;4855064;29;20119;-71
2023/01/10 02:07:36;;;;;;;7.80;1.80;;;7.60;99.90;;;;;;4856074;29;20057;-71
2023/01/10 02:10:16;;;;;;;12.55;2.08;;;7.50;99.90;;;;;;4855513;29;20065;-70
2023/01/10 02:12:45;;;;;;;11.50;2.08;;;7.60;99.90;;;;;;4854381;29;20053;-71
2023/01/10 02:15:11;;;;;;;9.60;2.20;;;7.60;99.90;;;;;;4841508;29;20045;-71
2023/01/10 02:17:38;;;;;;;5.60;1.50;;;7.60;99.90;;;;;;4854942;29;20140;-70
2023/01/10 02:20:10;;;;;;;9.93;2.03;;;7.70;99.90;;;;;;4856386;29;20501;-71
2023/01/10 02:23:17;;;;;;;8.57;1.92;;;7.70;99.90;;;;;;4855492;29;20441;-70
2023/01/10 02:26:05;;;;;;;12.48;2.58;;;7.70;99.90;;;;;;4817793;29;20076;-70
2023/01/10 02:28:51;;;;;;;9.15;1.90;;;7.90;99.90;;;;;;4856124;29;20140;-70
2023/01/10 02:31:55;;;;;;;14.80;2.75;;;7.90;99.90;;;;;;4855421;29;20072;-70
2023/01/10 02:34:51;;;;;;;10.05;1.98;;;7.90;99.90;;;;;;4850347;29;20052;-70
2023/01/10 02:37:41;;;;;;;9.65;1.77;;;7.90;99.90;;;;;;4855835;29;20037;-70
2023/01/10 02:40:19;;;;;;;8.25;1.52;;;7.70;99.90;;;;;;4856315;29;20537;-70
2023/01/10 02:43:07;;;;;;;6.75;1.90;;;7.70;99.90;;;;;;4837396;29;20497;-70
2023/01/10 02:45:47;;;;;;;7.00;1.83;;;7.60;99.90;;;;;;4846393;29;20041;-70
2023/01/10 02:48:12;;;;;;;6.70;1.55;;;7.60;99.90;;;;;;4839666;29;20065;-70
2023/01/10 02:50:41;;;;;;;5.70;1.65;;;7.60;99.90;;;;;;4855516;29;20069;-70
2023/01/10 02:53:13;;;;;;;9.07;2.25;;;7.50;99.90;;;;;;4855426;29;20041;-70
2023/01/10 02:55:59;;;;;;;7.68;1.88;;;7.50;99.90;;;;;;4846273;29;20051;-70
2023/01/10 02:58:43;;;;;;;9.07;2.10;;;7.60;99.90;;;;;;4840640;29;20041;-70
2023/01/10 03:01:37;;;;;;;10.88;2.50;;;7.50;99.90;;;;;;4838526;29;20041;-70
2023/01/10 03:04:23;;;;;;;12.38;2.47;;;7.60;99.90;;;;;;4853209;29;20057;-70
2023/01/10 03:06:49;;;;;;;9.35;2.05;;;7.60;99.90;;;;;;4856174;29;20045;-70
2023/01/10 03:09:17;;;;;;;;;;;7.70;99.90;;;;;;4839818;29;20410;-70
2023/01/10 03:11:46;;;;;;;13.07;2.45;;;7.70;99.90;;;;;;4854969;29;19920;-70
2023/01/10 03:14:20;;;;;;;13.32;2.88;;;7.70;99.90;;;;;;4854497;29;20074;-70
2023/01/10 03:16:51;;;;;;;15.45;2.47;;;7.70;99.90;;;;;;4854650;29;20137;-70
2023/01/10 03:19:22;;;;;;;12.50;2.38;;;7.70;99.90;;;;;;4838900;29;20049;-70
2023/01/10 03:21:53;;;;;;;12.63;2.35;;;7.80;99.90;;;;;;4838901;29;20049;-70
2023/01/10 03:24:35;;;;;;;12.93;2.20;;;7.90;99.90;;;;;;4855838;29;20078;-70
2023/01/10 03:27:06;;;;;;;12.30;2.05;;;8.00;99.90;;;;;;4853474;29;20056;-70
2023/01/10 03:29:55;;;;;;;10.48;2.05;;;8.00;99.90;;;;;;4855140;29;20073;-70
2023/01/10 03:32:25;;;;;;;9.93;2.10;;;7.90;99.90;;;;;;4855501;29;20109;-75
2023/01/10 03:34:51;;;;;;;11.10;2.17;;;8.00;99.90;;;;;;4856830;29;20312;-75
2023/01/10 03:37:31;;;;;;;8.50;1.92;;;8.00;99.90;;;;;;4841163;29;20049;-74
2023/01/10 03:40:04;;;;;;;9.35;2.28;;;8.10;99.90;;;;;;4855917;29;20133;-74
2023/01/10 03:46:03;;;;;;;8.35;2.03;;;8.20;99.90;;;;;;4855871;29;20057;-75
2023/01/10 03:48:35;;;;;;;11.02;1.90;;;8.20;99.90;;;;;;4840523;29;20463;-75
2023/01/10 03:51:04;;;;;;;9.93;1.85;;;8.20;99.90;;;;;;4855576;29;20057;-75
2023/01/10 03:53:31;;;;;;;8.63;1.70;;;8.20;99.90;;;;;;4856524;29;20033;-75
2023/01/10 03:55:56;;;;;;;10.07;2.25;;;8.20;99.90;;;;;;4841037;29;20041;-74
2023/01/10 03:58:22;;;;;;;9.93;2.83;;;8.20;99.90;;;;;;4845010;29;20112;-74
2023/01/10 04:00:48;;;;;;;7.68;2.25;;;8.30;99.90;;;;;;4858340;29;20054;-75
2023/01/10 04:03:15;;;;;;;6.32;1.70;;;8.30;99.90;;;;;;4841961;29;20045;-75
2023/01/10 04:05:41;;;;;;;10.18;2.00;;;8.20;99.90;;;;;;4859436;29;20068;-75
2023/01/10 04:08:07;;;;;;;7.57;1.80;;;8.20;99.90;;;;;;4858320;29;20782;-75
2023/01/10 04:10:33;;;;;;;8.82;1.95;;;8.10;99.90;;;;;;4844766;29;20189;-74
2023/01/10 04:13:03;;;;;;;7.50;1.42;;;8.10;99.90;;;;;;4843448;29;20061;-75
2023/01/10 04:15:29;;;;;;;5.82;1.52;;;8.10;99.90;;;;;;4843956;29;20324;-75
2023/01/10 04:17:55;;;;;;;8.43;1.90;;;8.00;99.90;;;;;;4859593;29;20053;-76
2023/01/10 04:20:21;;;;;;;9.65;1.80;;;8.00;99.90;;;;;;4858995;29;20091;-71
2023/01/10 04:22:50;;;;;;;;;;;8.00;99.90;;;;;;4848116;29;20049;-71
2023/01/10 04:25:16;;;;;;;7.90;1.90;;;8.00;99.90;;;;;;4854317;29;19931;-71
2023/01/10 04:27:41;;;;;;;14.20;2.88;;;8.10;99.90;;;;;;4857072;29;20049;-71
2023/01/10 04:30:08;;;;;;;6.40;1.67;;;8.10;99.90;;;;;;4857502;29;20041;-71
2023/01/10 04:32:34;;;;;;;10.05;2.30;;;8.10;99.90;;;;;;4854721;29;20826;-71
2023/01/10 04:35:00;;;;;;;9.32;1.60;;;8.00;99.90;;;;;;4856451;29;20176;-70
2023/01/10 04:37:26;;;;;;;6.80;2.03;;;8.00;99.90;;;;;;4857992;29;20189;-71
2023/01/10 04:39:51;;;;;;;10.48;1.98;;;8.00;99.90;;;;;;4857744;29;20097;-71
2023/01/10 04:42:20;;;;;;;4.80;1.60;;;8.00;99.90;;;;;;4857658;29;20074;-71
2023/01/10 04:44:45;;;;;;;9.35;1.90;;;7.90;99.90;;;;;;4841534;29;20038;-71
2023/01/10 04:47:11;;;;;;;9.73;2.45;;;7.90;99.90;;;;;;4857534;29;20386;-71
2023/01/10 04:49:37;;;;;;;6.75;1.70;;;7.80;99.90;;;;;;4858278;29;20117;-71
2023/01/10 04:52:03;;;;;;;8.20;2.03;;;7.90;99.90;;;;;;4857001;29;20450;-70
2023/01/10 04:54:28;;;;;;;11.10;2.00;;;8.00;99.90;;;;;;4857947;29;20128;-71
2023/01/10 04:56:54;;;;;;;8.07;2.17;;;8.00;99.90;;;;;;4856223;29;20439;-70
2023/01/10 04:59:20;;;;;;;12.30;2.20;;;8.00;99.90;;;;;;4859020;29;20080;-71
2023/01/10 05:01:45;;;;;;;10.48;2.25;;;8.10;99.90;;;;;;4840571;29;20124;-71
2023/01/10 05:04:11;;;;;;;11.98;2.28;;;8.20;99.90;;;;;;4837776;29;20079;-70
2023/01/10 05:06:39;;;;;;;9.27;2.05;;;8.30;99.90;;;;;;4857572;29;20057;-70
2023/01/10 05:09:07;;;;;;;15.15;2.20;;;8.10;99.90;;;;;;4839896;29;20054;-70
2023/01/10 05:11:33;;;;;;;10.55;2.25;;;8.10;99.90;;;;;;4858472;29;20049;-70
2023/01/10 05:13:59;;;;;;;8.18;1.80;;;8.20;99.90;;;;;;4840714;29;20643;-70
2023/01/10 05:16:25;;;;;;;7.55;1.55;;;8.20;99.90;;;;;;4856806;29;20041;-71
2023/01/10 05:18:50;;;;;;;9.25;1.58;;;8.20;99.90;;;;;;4841712;29;20054;-70
2023/01/10 05:21:17;;;;;;;8.90;2.17;;;8.30;99.90;;;;;;4857944;29;20048;-70
2023/01/10 05:23:42;;;;;;;;;;;8.20;99.90;;;;;;4856365;29;21464;-71
2023/01/10 05:26:12;;;;;;;7.85;2.00;;;8.30;99.90;;;;;;4857532;29;19935;-70
2023/01/10 05:28:38;;;;;;;8.60;1.90;;;8.30;99.90;;;;;;4856109;29;20371;-71
2023/01/10 05:31:12;;;;;;;8.63;1.50;;;8.40;99.90;;;;;;4838135;29;20045;-70
2023/01/10 05:33:38;;;;;;;6.05;1.70;;;8.50;99.90;;;;;;4855572;29;20044;-71
2023/01/10 05:36:05;;;;;;;4.05;1.40;;;8.50;99.90;;;;;;4841686;29;20425;-74
2023/01/10 05:38:31;;;;;;;6.75;1.58;;;8.50;99.90;;;;;;4843245;29;20157;-75
2023/01/10 05:40:58;;;;;;;5.57;1.73;;;8.50;99.90;;;;;;4859346;29;20498;-75
2023/01/10 05:43:25;;;;;;;8.52;1.70;;;8.40;99.90;;;;;;4858606;29;20048;-75
2023/01/10 05:45:51;;;;;;;5.55;1.60;;;8.50;99.90;;;;;;4857428;29;20534;-75
2023/01/10 05:48:20;;;;;;;9.05;1.77;;;8.60;99.90;;;;;;4857240;29;20097;-75
2023/01/10 05:50:48;;;;;;;8.55;1.98;;;8.60;99.90;;;;;;4855442;29;20398;-75
2023/01/10 05:53:14;;;;;;;5.88;1.88;;;8.60;99.90;;;;;;4857071;29;20436;-76
2023/01/10 05:55:40;;;;;;;11.00;2.63;;;8.60;99.90;;;;;;4825289;29;20052;-70
2023/01/10 05:58:06;;;;;;;8.48;2.22;;;8.60;99.90;;;;;;4854595;29;20049;-70
2023/01/10 06:00:32;;;;;;;6.07;1.90;;;8.60;99.90;;;;;;4855507;29;21336;-70
2023/01/10 06:02:57;;;;;;;6.55;1.70;;;8.70;99.90;;;;;;4855317;29;20059;-76
2023/01/10 06:05:23;;;;;;;5.90;1.40;;;8.60;99.90;;;;;;4855494;29;20069;-77
2023/01/10 06:07:49;;;;;;;11.65;1.95;;;8.60;99.90;;;;;;4855900;29;20050;-77
2023/01/10 06:10:16;;;;;;;9.75;1.88;;;8.50;99.90;;;;;;4856925;29;20041;-76
2023/01/10 06:12:41;;;;;;;;;;;8.50;99.90;;;;;;4856366;29;20050;-77
2023/01/10 06:15:08;;;;;;;9.55;1.92;;;8.50;99.90;;;;;;4855917;29;20299;-76
2023/01/10 06:17:34;;;;;;;8.32;1.70;;;8.50;99.90;;;;;;4834603;29;20042;-77
2023/01/10 06:20:00;;;;;;;7.93;1.60;;;8.40;99.90;;;;;;4856625;29;20061;-76
2023/01/10 06:22:27;;;;;;;7.13;1.63;;;8.50;99.90;;;;;;4857166;29;20071;-75
2023/01/10 06:24:53;;;;;;;;;;;8.40;99.90;;;;;;4854953;29;20057;-75
2023/01/10 06:27:19;;;;;;;5.10;1.17;;;8.30;99.90;;;;;;4847576;29;19943;-76
2023/01/10 06:29:45;;;;;;;6.03;1.45;;;8.30;99.90;;;;;;4848624;29;20048;-76
2023/01/10 06:32:11;;;;;;;9.27;1.85;;;8.30;99.90;;;;;;4857460;29;20393;-76
2023/01/10 06:34:36;;;;;;;7.13;1.63;;;8.30;99.90;;;;;;4856042;29;20141;-77
2023/01/10 06:37:02;;;;;;;5.57;1.52;;;8.20;99.90;;;;;;4851226;29;20112;-76
2023/01/10 06:39:28;;;;;;;4.22;1.30;;;8.20;99.90;;;;;;4837646;29;20049;-71
2023/01/10 06:41:53;;;;;;;4.85;1.00;;;8.10;99.90;;;;;;4849776;29;20046;-71
2023/01/10 06:44:19;;;;;;;4.13;1.10;;;8.10;99.90;;;;;;4853861;29;20048;-74
2023/01/10 06:46:45;;;;;;;2.50;1.00;;;8.00;99.90;;;;;;4857483;29;20113;-74
2023/01/10 06:49:10;;;;;;;4.43;1.08;;;7.90;99.90;;;;;;4842240;29;20098;-74
2023/01/10 06:51:36;;;;;;;6.40;1.50;;;8.00;99.90;;;;;;4857287;29;20037;-71
2023/01/10 06:54:02;;;;;;;4.70;1.17;;;8.00;99.90;;;;;;4856604;29;20120;-73
2023/01/10 06:56:27;;;;;;;4.38;1.58;;;7.90;99.90;;;;;;4857298;29;20038;-73
2023/01/10 06:58:53;;;;;;;7.45;1.63;;;8.00;99.90;;;;;;4858485;29;20047;-74
2023/01/10 07:01:20;;;;;;;4.50;1.20;;;7.90;99.90;;;;;;4857948;29;20040;-74
2023/01/10 07:03:46;;;;;;;5.28;1.30;;;7.90;99.90;;;;;;4857879;29;20041;-74
2023/01/10 07:06:13;;;;;;;4.40;1.33;;;8.00;99.90;;;;;;4858088;29;20089;-74
2023/01/10 07:08:41;;;;;;;5.90;1.50;;;8.00;99.90;;;;;;4857999;29;20048;-74
2023/01/10 07:11:08;;;;;;;4.75;1.50;;;7.90;99.90;;;;;;4857619;29;20181;-74
2023/01/10 07:13:34;;;;;;;7.80;1.60;;;8.00;99.90;;;;;;4857120;29;20045;-74
2023/01/10 07:16:02;;;;;;;5.60;1.50;;;8.10;99.90;;;;;;4857515;29;20055;-74
2023/01/10 07:18:27;;;;;;;7.20;1.70;;;8.10;99.90;;;;;;4857708;29;20037;-74
2023/01/10 07:20:54;;;;;;;6.38;1.63;;;8.10;99.90;;;;;;4857690;29;20038;-74
2023/01/10 07:23:19;;;;;;;;;;;8.10;99.90;;;;;;4859311;29;20045;-74
2023/01/10 07:25:45;;;;;;;7.30;1.83;;;8.20;99.90;;;;;;4840173;29;20389;-71
2023/01/10 07:28:11;;;;;;;6.25;1.50;;;8.20;99.90;;;;;;4840346;29;20052;-71
2023/01/10 07:30:36;;;;;;;6.20;1.80;;;8.30;99.90;;;;;;4855259;29;20057;-71
2023/01/10 07:33:02;;;;;;;10.07;2.13;;;8.40;99.90;;;;;;4855263;29;20046;-71
2023/01/10 07:35:28;;;;;;;11.20;2.72;;;8.30;99.90;;;;;;4855365;29;20176;-71
2023/01/10 07:37:58;;;;;;;10.52;2.67;;;8.30;99.90;;;;;;4839928;29;20162;-71
2023/01/10 07:40:25;;;;;;;13.20;2.90;;;8.30;99.90;;;;;;4855679;29;20068;-71
2023/01/10 07:42:58;;;;;;;14.50;2.83;;;8.40;99.90;;;;;;4855578;29;20166;-70
2023/01/10 07:45:25;;;;;;;14.40;2.72;;;8.60;99.90;;;;;;4840229;29;20132;-70
2023/01/10 07:47:59;;;;;;;12.65;2.30;;;8.50;99.90;;;;;;4840055;29;20057;-70
2023/01/10 07:50:26;;;;;;;10.32;2.53;;;8.60;99.90;;;;;;4855055;29;20152;-70
2023/01/10 07:52:52;;;;;;;14.20;2.92;;;8.60;99.90;;;;;;4855106;29;20472;-70
2023/01/10 07:55:18;;;;;;;12.25;2.65;;;8.70;99.90;;;;;;4855387;29;20155;-70
2023/01/10 07:57:44;;;;;;;10.98;2.70;;;8.60;99.90;;;;;;4855345;29;20043;-70
2023/01/10 08:00:10;;;;;;;9.48;2.42;;;8.70;99.90;;;;;;4840277;29;20041;-71
2023/01/10 08:02:36;;;;;;;12.25;3.38;;;8.80;99.90;;;;;;4855427;29;20053;-70
2023/01/10 08:05:03;;;;;;;10.80;3.45;;;8.70;99.90;;;;;;4855999;29;20068;-73
2023/01/10 08:07:30;;;;;;;14.85;2.80;;;8.70;99.90;;;;;;4856774;29;20053;-73
2023/01/10 08:09:55;;;;;;;12.50;3.15;;;8.70;99.90;;;;;;4855425;29;20049;-74
2023/01/10 08:12:23;;;;;;;10.10;2.90;;;8.70;99.90;;;;;;4856931;29;20034;-74
2023/01/10 08:14:49;;;;;;;15.63;3.00;;;8.70;99.90;;;;;;4845529;29;20075;-73
2023/01/10 08:17:15;;;;;;;;;;;8.70;99.90;;;;;;4857270;29;20117;-74
2023/01/10 08:19:41;;;;;;;12.93;2.85;;;8.60;99.90;;;;;;4857053;29;20360;-73
2023/01/10 08:22:06;;;;;;;9.40;2.78;;;8.50;99.90;;;;;;4857426;29;20053;-73
2023/01/10 08:24:32;;;;;;;13.93;2.97;;;8.50;99.90;;;;;;4856760;29;20110;-74
2023/01/10 08:26:58;;;;;;;9.90;2.50;;;8.60;99.90;;;;;;4856537;29;20056;-73
2023/01/10 08:29:24;;;;;;;14.57;3.08;;;8.60;99.90;;;;;;4856980;29;20046;-73
2023/01/10 08:31:50;;;;;;;16.73;3.33;;;8.60;99.90;;;;;;4856704;29;20066;-73
2023/01/10 08:34:16;;;;;;;14.73;3.10;;;8.70;99.90;;;;;;4841474;29;20491;-73
2023/01/10 08:36:42;;;;;;;16.58;3.13;;;8.70;99.90;;;;;;4856583;29;20053;-73
2023/01/10 08:39:07;;;;;;;10.82;3.20;;;8.60;99.90;;;;;;4841349;29;20042;-73
2023/01/10 08:41:33;;;;;;;15.00;3.22;;;8.70;99.90;;;;;;4857743;29;20042;-73
2023/01/10 08:43:59;;;;;;;21.67;4.68;;;8.80;99.90;;;;;;4844732;29;20482;-73
2023/01/10 08:46:25;;;;;;;15.70;3.22;;;8.60;99.90;;;;;;4859498;29;20053;-74
2023/01/10 08:48:51;;;;;;;13.38;3.00;;;8.70;99.90;;;;;;4859765;29;20046;-74
2023/01/10 08:51:17;;;;;;;20.35;3.80;;;8.70;99.90;;;;;;4844427;29;20081;-73
2023/01/10 08:53:43;;;;;;;15.63;3.92;;;8.60;99.90;;;;;;4859584;29;20402;-73
2023/01/10 08:56:09;;;;;;;15.73;3.80;;;8.80;99.90;;;;;;4859435;29;20140;-73
2023/01/10 08:58:35;;;;;;;12.45;3.58;;;8.80;99.90;;;;;;4860224;29;20056;-74
2023/01/10 09:01:05;;;;;;;18.90;4.03;;;8.90;99.90;;;;;;4858765;29;20050;-73
2023/01/10 09:03:31;;;;;;;12.98;3.25;;;8.90;99.90;;;;;;4843717;29;20105;-74
2023/01/10 09:06:01;;;;;;;18.90;4.00;;;8.80;99.90;;;;;;4828552;29;20066;-73
2023/01/10 09:08:27;;;;;;;22.42;4.13;;;8.80;99.90;;;;;;4856074;29;20049;-73
2023/01/10 09:10:52;;;;;;;17.00;3.40;;;8.80;99.90;;;;;;4842455;29;20053;-73
2023/01/10 09:13:21;;;;;;;15.50;3.10;;;8.80;99.90;;;;;;4859284;29;20057;-73
2023/01/10 09:15:50;;;;;;;19.83;3.97;;;8.80;99.90;;;;;;4854470;29;20077;-73
2023/01/10 09:18:15;;;;;;;17.55;4.03;;;8.80;99.90;;;;;;4837433;29;20116;-74
2023/01/10 09:20:42;;;;;;;15.15;4.00;;;8.90;99.90;;;;;;4861276;29;20193;-74
2023/01/10 09:23:10;;;;;;;18.27;3.13;;;8.80;99.90;;;;;;4843031;29;20056;-74
2023/01/10 09:25:37;;;;;;;20.52;3.22;;;8.90;99.90;;;;;;4860309;29;20055;-73
2023/01/10 09:28:03;;;;;;;;;;;8.90;99.90;;;;;;4844876;29;20589;-74
2023/01/10 09:30:30;;;;;;;10.90;2.80;;;8.90;99.90;;;;;;4836922;29;20074;-74
2023/01/10 09:32:57;;;;;;;15.20;3.08;;;8.90;99.90;;;;;;4847754;29;20054;-74
2023/01/10 09:35:23;;;;;;;;;;;8.80;99.90;;;;;;4857761;29;20109;-74
2023/01/10 09:37:49;;;;;;;18.38;3.25;;;8.90;99.90;;;;;;4860782;29;20329;-74
2023/01/10 09:40:52;;;;;;;19.52;3.38;;;8.90;99.90;;;;;;4853230;29;20060;-71
2023/01/10 09:43:40;;;;;;;11.90;3.25;;;8.90;99.90;;;;;;4855154;29;20091;-73
2023/01/10 09:46:27;;;;;;;11.88;2.92;;;8.90;99.90;;;;;;4861030;29;20072;-74
2023/01/10 09:49:15;;;;;;;15.63;3.73;;;8.90;99.90;;;;;;4857287;29;20113;-74
2023/01/10 09:51:46;;;;;;;13.75;3.08;;;8.90;99.90;;;;;;4855890;29;20509;-69
2023/01/10 09:54:31;;;;;;;20.23;3.53;;;8.90;99.90;;;;;;4854712;29;20049;-69
2023/01/10 09:56:59;;;;;;;16.63;2.97;;;8.90;99.90;;;;;;4857161;29;20152;-74
2023/01/10 09:59:31;;;;;;;17.20;3.63;;;8.90;99.90;;;;;;4840100;29;20480;-74
2023/01/10 10:02:15;;;;;;;22.55;4.05;;;8.90;99.90;;;;;;4852624;29;20057;-74
2023/01/10 10:04:45;;;;;;;16.38;3.70;;;8.90;99.90;;;;;;4857980;29;20506;-74
2023/01/10 10:07:16;;;;;;;17.05;3.25;;;8.90;99.90;;;;;;4845483;29;20064;-74
2023/01/10 10:09:42;;;;;;;18.67;3.85;;;8.90;99.90;;;;;;4843474;29;20912;-74
2023/01/10 10:12:29;;;;;;;14.20;3.60;;;9.00;99.90;;;;;;4841471;29;20045;-73
2023/01/10 10:15:24;;;;;;;16.33;3.55;;;9.00;99.90;;;;;;4845346;29;20113;-73
2023/01/10 10:18:09;;;;;;;16.35;3.92;;;8.90;99.90;;;;;;4810413;29;20046;-74
2023/01/10 10:20:46;;;;;;;19.00;3.50;;;8.90;99.90;;;;;;4847781;29;20049;-74
2023/01/10 10:23:23;;;;;;;16.95;3.45;;;8.90;99.90;;;;;;4858683;29;20057;-74
2023/01/10 10:26:07;;;;;;;18.33;3.85;;;8.90;99.90;;;;;;4857901;29;20534;-72
2023/01/10 10:29:06;;;;;;;18.23;3.55;;;8.80;99.90;;;;;;4858800;29;20538;-74
2023/01/10 10:32:15;;;;;;;19.00;3.70;;;8.80;99.90;;;;;;4853935;29;20038;-70
2023/01/10 10:34:46;;;;;;;20.73;3.58;;;8.80;99.90;;;;;;4853288;29;20034;-69
2023/01/10 10:37:31;;;;;;;22.60;3.95;;;8.70;99.90;;;;;;4852763;29;20041;-70
2023/01/10 10:40:24;;;;;;;18.45;3.80;;;8.70;99.90;;;;;;4849377;29;20467;-69
2023/01/10 10:42:56;;;;;;;18.13;3.70;;;8.60;99.90;;;;;;4850922;29;20053;-69
2023/01/10 10:45:46;;;;;;;20.52;4.45;;;8.70;99.90;;;;;;4856328;29;20124;-70
2023/01/10 10:48:40;;;;;;;16.88;3.88;;;8.60;99.90;;;;;;4852867;29;20117;-70
2023/01/10 10:51:33;;;;;;;17.55;3.92;;;8.60;99.90;;;;;;4839348;29;20049;-70
2023/01/10 10:54:00;;;;;;;18.23;3.35;;;8.60;99.90;;;;;;4856273;29;20042;-70
2023/01/10 10:56:26;;;;;;;18.58;4.03;;;8.60;99.90;;;;;;4840742;29;20779;-69
2023/01/10 10:58:54;;;;;;;;;;;8.50;99.90;;;;;;4831527;29;20045;-69
2023/01/10 11:01:21;;;;;;;15.35;3.50;;;8.60;99.90;;;;;;4856359;29;19942;-70
2023/01/10 11:03:53;;;;;;;13.57;3.20;;;8.60;99.90;;;;;;4825320;29;20173;-69
2023/01/10 11:06:20;;;;;;;18.13;3.83;;;8.60;99.90;;;;;;4804515;29;20047;-69
2023/01/10 11:08:49;;;;;;;13.50;3.15;;;8.50;99.90;;;;;;4819392;29;20510;-69
2023/01/10 11:11:27;;;;;;;14.32;2.90;;;8.50;99.90;;;;;;4819420;29;20061;-69
2023/01/10 11:13:58;;;;;;;17.35;3.63;;;8.50;99.90;;;;;;4819015;29;20126;-70
2023/01/10 11:16:25;;;;;;;13.63;3.50;;;8.60;99.90;;;;;;4802438;29;20050;-69
2023/01/10 11:19:23;;;;;;;17.23;4.45;;;8.60;99.90;;;;;;4818978;29;20064;-71
2023/01/10 11:21:56;;;;;;;22.48;5.32;;;8.60;99.90;;;;;;4802392;29;20050;-70
2023/01/10 11:24:24;;;;;;;24.52;5.32;;;8.60;99.90;;;;;;4819554;29;20145;-69
2023/01/10 11:26:51;;;;;;;20.42;5.28;;;8.60;99.90;;;;;;4812708;29;20484;-70
2023/01/10 11:29:37;;;;;;;;;;;8.50;99.90;;;;;;4818104;29;20554;-70
2023/01/10 11:32:13;;;;;;;16.83;4.70;;;8.50;99.90;;;;;;4819937;29;19921;-71
2023/01/10 11:34:52;;;;;;;22.30;5.05;;;8.60;99.90;;;;;;4820116;29;20054;-69
2023/01/10 11:37:24;;;;;;;21.33;5.97;;;8.50;99.90;;;;;;4818972;29;20085;-70
2023/01/10 11:40:13;;;;;;;24.67;4.97;;;8.50;99.90;;;;;;4819252;29;20473;-70
2023/01/10 11:42:38;;;;;;;18.42;5.53;;;8.50;99.90;;;;;;4817248;29;20075;-69
2023/01/10 11:45:21;;;;;;;26.33;5.88;;;8.50;99.90;;;;;;4803970;29;20115;-70
2023/01/10 11:47:48;;;;;;;17.45;5.78;;;8.50;99.90;;;;;;4819213;29;20050;-70
2023/01/10 11:50:39;;;;;;;14.52;5.03;;;8.50;99.90;;;;;;4803745;29;20093;-70
2023/01/10 11:53:25;;;;;;;16.27;5.47;;;8.40;99.90;;;;;;4819943;29;20054;-76
2023/01/10 11:55:50;;;;;;;21.65;5.78;;;8.30;99.90;;;;;;4818695;29;20042;-75
2023/01/10 11:58:17;;;;;;;20.60;6.38;;;8.30;99.90;;;;;;4817897;29;20073;-75
2023/01/10 12:00:48;;;;;;;23.08;6.43;;;8.30;99.90;;;;;;4817816;29;20052;-75
2023/01/10 12:03:21;;;;;;;21.77;6.28;;;8.30;99.90;;;;;;4811294;29;20054;-76
2023/01/10 12:05:59;;;;;;;18.75;6.07;;;8.30;99.90;;;;;;4848252;29;20140;-76
2023/01/10 12:08:33;;;;;;;18.95;5.55;;;8.20;99.90;;;;;;4855537;29;20053;-76
2023/01/10 12:11:31;;;;;;;17.88;5.47;;;8.20;99.90;;;;;;4855613;29;20050;-76
2023/01/10 12:13:59;;;;;;;17.45;5.53;;;8.20;99.90;;;;;;4854081;29;20095;-76
2023/01/10 12:16:32;;;;;;;15.20;5.60;;;8.20;99.90;;;;;;4858425;29;20049;-76
2023/01/10 12:19:10;;;;;;;18.27;5.22;;;8.10;99.90;;;;;;4859860;29;20052;-76
2023/01/10 12:21:41;;;;;;;19.98;5.22;;;8.10;99.90;;;;;;4844877;29;20049;-77
2023/01/10 12:24:16;;;;;;;17.27;5.20;;;8.10;99.90;;;;;;4858265;29;20052;-76
2023/01/10 12:26:43;;;;;;;20.08;5.50;;;8.10;99.90;;;;;;4859438;29;20124;-76
2023/01/10 12:29:18;;;;;;;20.58;5.70;;;8.10;99.90;;;;;;4844585;29;20132;-76
2023/01/10 12:31:44;;;;;;;17.98;6.03;;;8.00;99.90;;;;;;4859525;29;20057;-76
2023/01/10 12:34:25;;;;;;;17.90;5.28;;;8.00;99.90;;;;;;4859839;29;20051;-76
2023/01/10 12:37:15;;;;;;;15.93;4.50;;;8.00;99.90;;;;;;4859479;29;20077;-77
2023/01/10 12:39:54;;;;;;;20.27;4.95;;;8.00;99.90;;;;;;4859567;29;20049;-76
2023/01/10 12:45:52;;;;;;;23.63;6.20;;;8.00;99.90;;;;;;4788046;29;20058;-76
2023/01/10 12:48:36;;;;;;;17.60;5.30;;;8.00;99.90;;;;;;4843239;29;20080;-76
2023/01/10 12:51:06;;;;;;;15.00;5.20;;;8.00;99.90;;;;;;4842713;29;20108;-77
2023/01/10 12:53:48;;;;;;;20.48;4.95;;;8.00;99.90;;;;;;4843952;29;20077;-75
2023/01/10 12:56:16;;;;;;;18.05;5.72;;;8.00;99.90;;;;;;4858202;29;20080;-75
2023/01/10 12:58:52;;;;;;;20.13;5.95;;;7.90;99.90;;;;;;4849877;29;20134;-70
2023/01/10 13:01:28;;;;;;;16.85;4.97;;;7.90;99.90;;;;;;4854899;29;20053;-68
2023/01/10 13:04:01;;;;;;;20.77;6.03;;;7.90;99.90;;;;;;4853051;29;20045;-70
2023/01/10 13:06:38;;;;;;;19.75;5.90;;;7.90;99.90;;;;;;4856373;29;20061;-70
2023/01/10 13:09:16;;;;;;;20.83;5.50;;;7.80;99.90;;;;;;4840501;29;20109;-67
2023/01/10 13:12:20;;;;;;;19.38;4.35;;;7.80;99.90;;;;;;4851192;29;20104;-70
2023/01/10 13:15:00;;;;;;;15.52;4.75;;;7.80;99.90;;;;;;4853952;29;20041;-71
2023/01/10 13:17:32;;;;;;;20.95;5.93;;;7.80;99.90;;;;;;4840708;29;20046;-70
2023/01/10 13:20:16;;;;;;;20.70;5.50;;;7.70;99.90;;;;;;4854101;29;20386;-70
2023/01/10 13:22:55;;;;;;;16.33;5.03;;;7.80;99.90;;;;;;4838446;29;20057;-70
2023/01/10 13:25:26;;;;;;;22.27;4.80;;;7.80;99.90;;;;;;4854381;29;20407;-71
2023/01/10 13:28:06;;;;;;;16.60;4.85;;;7.80;99.90;;;;;;4850164;29;20057;-71
2023/01/10 13:30:39;;;;;;;21.33;4.80;;;7.70;99.90;;;;;;4853145;29;20101;-71